createdAt,value
2017-08-30T00:09:44.832Z,19.2
2017-08-30T00:19:59.639Z,19.4
2017-08-30T00:30:14.988Z,19.8
2017-08-30T00:40:29.591Z,19.6
2017-08-30T00:50:44.128Z,19.7
2017-08-30T01:00:58.504Z,19.8
2017-08-30T01:11:13.701Z,19.8
2017-08-30T01:21:28.483Z,20
2017-08-30T01:31:42.955Z,20.2
2017-08-30T01:41:57.371Z,20.2
2017-08-30T01:52:12.202Z,20
2017-08-30T02:02:26.705Z,19.9
2017-08-30T02:12:40.521Z,20.1
2017-08-30T02:22:54.523Z,20.2
2017-08-30T02:33:09.613Z,20.2
2017-08-30T02:43:24.371Z,20
2017-08-30T02:53:38.871Z,19.9
2017-08-30T03:03:54.332Z,19.8
2017-08-30T03:14:09.336Z,19.5
2017-08-30T03:24:23.437Z,19.5
2017-08-30T03:34:38.729Z,19.4
2017-08-30T03:44:53.031Z,18.9
2017-08-30T03:55:07.921Z,18.7
2017-08-30T04:05:21.739Z,18.4
2017-08-30T04:15:36.611Z,18.4
2017-08-30T04:25:51.725Z,18.4
2017-08-30T04:36:06.902Z,18.5
2017-08-30T04:46:21.773Z,18.2
2017-08-30T04:56:36.012Z,18.2
2017-08-30T05:06:49.886Z,18.2
2017-08-30T05:17:05.241Z,18.6
2017-08-30T05:27:20.398Z,18.8
2017-08-30T05:37:34.868Z,19
2017-08-30T05:47:49.182Z,19
2017-08-30T05:58:04.610Z,19.2
2017-08-30T06:08:20.339Z,19.8
2017-08-30T06:18:34.205Z,20.5
2017-08-30T06:28:48.171Z,20.7
2017-08-30T06:39:02.023Z,21
2017-08-30T06:49:16.688Z,21.3
2017-08-30T06:59:31.581Z,21.4
2017-08-30T07:09:47.044Z,21.8
2017-08-30T07:20:00.940Z,22.6
2017-08-30T07:30:14.960Z,22.4
2017-08-30T07:40:29.434Z,22.6
2017-08-30T07:50:43.452Z,23.4
2017-08-30T08:00:58.160Z,23.9
2017-08-30T08:11:12.172Z,23.6
2017-08-30T08:21:27.921Z,23.6
2017-08-30T08:31:41.793Z,26.2
2017-08-30T08:41:56.165Z,26.5
2017-08-30T08:52:10.536Z,27
2017-08-30T09:02:24.824Z,25.8
2017-08-30T09:12:38.950Z,26.2
2017-08-30T09:22:54.751Z,25.9
2017-08-30T09:33:09.791Z,25.7
2017-08-30T09:43:23.961Z,24.7
2017-08-30T09:53:39.281Z,24.2
2017-08-30T10:03:54.027Z,23.2
2017-08-30T10:14:09.644Z,22.6
2017-08-30T10:24:24.024Z,22.4
2017-08-30T10:34:39.521Z,22.4
2017-08-30T10:44:53.377Z,21.9
2017-08-30T10:55:07.765Z,21.4
2017-08-30T11:05:22.861Z,21.8
2017-08-30T11:15:36.754Z,22.5
2017-08-30T11:25:50.799Z,23.6
2017-08-30T11:36:06.386Z,24.8
2017-08-30T11:46:22.068Z,24.9
2017-08-30T11:56:37.911Z,25.9
2017-08-30T12:06:53.219Z,27.4
2017-08-30T12:17:07.267Z,26.7
2017-08-30T12:27:21.442Z,26.1
2017-08-30T12:37:36.506Z,25.8
2017-08-30T12:47:51.715Z,25.7
2017-08-30T12:58:05.726Z,26.4
2017-08-30T13:08:20.689Z,26.4
2017-08-30T13:18:35.744Z,26.7
2017-08-30T13:28:51.374Z,27.5
2017-08-30T13:39:06.864Z,27.6
2017-08-30T13:49:21.947Z,27.8
2017-08-30T13:59:37.114Z,28.2
2017-08-30T14:09:52.690Z,27.3
2017-08-30T14:20:08.570Z,26.7
2017-08-30T14:30:24.473Z,26.5
2017-08-30T14:40:38.994Z,26.1
2017-08-30T14:50:53.231Z,25.8
2017-08-30T15:01:07.770Z,25.6
2017-08-30T15:11:23.193Z,25.8
2017-08-30T15:21:38.584Z,26.3
2017-08-30T15:31:53.883Z,26.2
2017-08-30T15:42:08.392Z,25.7
2017-08-30T15:52:22.635Z,25.3
2017-08-30T16:02:37.301Z,25.1
2017-08-30T16:12:51.811Z,24.8
2017-08-30T16:23:06.764Z,24.8
2017-08-30T16:33:22.492Z,24.7
2017-08-30T16:43:37.625Z,24.8
2017-08-30T16:53:51.737Z,24.7
2017-08-30T17:04:06.797Z,24.6
2017-08-30T17:14:21.566Z,24.4
2017-08-30T17:24:36.471Z,24.3
2017-08-30T17:34:51.643Z,24.1
2017-08-30T17:45:07.312Z,23.9
2017-08-30T17:55:21.227Z,23.5
2017-08-30T18:05:36.540Z,23.3
2017-08-30T18:15:51.456Z,22.5
2017-08-30T18:26:05.986Z,22
2017-08-30T18:36:20.989Z,21.7
2017-08-30T18:46:36.726Z,21.6
2017-08-30T18:56:51.600Z,21.5
2017-08-30T19:07:06.460Z,21.3
2017-08-30T19:17:20.956Z,21.5
2017-08-30T19:27:36.039Z,21.5
2017-08-30T19:37:50.000Z,21.4
2017-08-30T19:48:04.191Z,20.2
2017-08-30T19:58:18.920Z,19.5
2017-08-30T20:08:32.915Z,19.6
2017-08-30T20:18:47.854Z,19.5
2017-08-30T20:29:03.551Z,19.5
2017-08-30T20:39:18.158Z,19.3
2017-08-30T20:49:32.546Z,19.1
2017-08-30T20:59:46.457Z,19.1
2017-08-30T21:10:01.265Z,19.1
2017-08-30T21:20:15.551Z,19.1
2017-08-30T21:30:31.323Z,19
2017-08-30T21:40:46.140Z,18.9
2017-08-30T21:51:00.741Z,18.8
2017-08-30T22:01:14.723Z,18.7
2017-08-30T22:11:29.405Z,18.5
2017-08-30T22:21:44.794Z,18.4
2017-08-30T22:31:59.810Z,18.3
2017-08-30T22:42:13.759Z,18.3
2017-08-30T22:52:28.481Z,18.1
2017-08-30T23:02:43.790Z,18.1
2017-08-30T23:12:58.456Z,18.1
2017-08-30T23:23:13.980Z,18.1
2017-08-30T23:33:29.185Z,18.2
2017-08-30T23:43:43.223Z,18.2
2017-08-30T23:53:58.526Z,18.2
